Time;durP1;ratioP1;P1;durP2;ratioP2;P2;SDS_P1;SDS_P2;PMS_P1;PMS_P2;Temp;Humidity;BMP_temperature;BMP_pressure;BME280_temperature;BME280_humidity;BME280_pressure;Samples;Min_cycle;Max_cycle;Signal;HPM_P1;HPM_P2
2022/08/15 00:01:27;;;;;;;2.85;1.12;;;26.80;42.30;;;;;;2261012;56;20965;-69
2022/08/15 00:03:57;;;;;;;2.35;1.10;;;26.60;42.20;;;;;;2262013;56;20996;-71
2022/08/15 00:06:29;;;;;;;2.22;1.02;;;26.70;42.50;;;;;;2489841;54;21016;-67
2022/08/15 00:08:57;;;;;;;1.75;0.90;;;26.60;42.50;;;;;;2262523;56;21502;-71
2022/08/15 00:11:27;;;;;;;2.30;0.98;;;26.60;42.40;;;;;;2262205;56;21968;-68
2022/08/15 00:14:07;;;;;;;2.85;0.90;;;26.60;42.70;;;;;;2262154;56;21016;-69
2022/08/15 00:16:36;;;;;;;1.95;0.90;;;26.50;43.10;;;;;;2261276;56;20991;-71
2022/08/15 00:19:06;;;;;;;1.90;0.90;;;26.50;42.90;;;;;;2288843;55;21051;-70
2022/08/15 00:21:32;;;;;;;1.50;0.70;;;26.40;42.80;;;;;;2384886;55;20988;-70
2022/08/15 00:23:59;;;;;;;2.72;1.12;;;26.40;42.80;;;;;;2263139;56;20964;-69
2022/08/15 00:26:25;;;;;;;3.00;0.90;;;26.30;43.00;;;;;;2262806;56;21000;-72
2022/08/15 00:28:51;;;;;;;2.17;1.00;;;26.30;43.20;;;;;;2264609;56;21835;-71
2022/08/15 00:31:17;;;;;;;2.50;1.00;;;26.30;43.30;;;;;;2488674;55;20928;-71
2022/08/15 00:33:44;;;;;;;2.25;0.88;;;26.30;43.60;;;;;;2264982;56;20964;-71
2022/08/15 00:36:14;;;;;;;3.50;1.00;;;26.20;43.70;;;;;;2260259;56;20953;-72
2022/08/15 00:38:40;;;;;;;2.20;0.90;;;26.20;44.00;;;;;;2263438;56;21504;-72
2022/08/15 00:43:56;;;;;;;3.08;0.93;;;26.10;44.70;;;;;;2261387;56;20953;-71
2022/08/15 00:46:22;;;;;;;4.32;0.98;;;26.10;44.50;;;;;;2486597;55;20941;-71
2022/08/15 00:48:50;;;;;;;2.92;1.17;;;26.00;44.50;;;;;;2261048;56;20957;-70
2022/08/15 00:51:41;;;;;;;1.98;0.88;;;26.00;44.80;;;;;;2261810;56;20948;-70
2022/08/15 00:54:17;;;;;;;1.67;0.88;;;26.00;45.40;;;;;;2265910;56;20949;-70
2022/08/15 00:56:52;;;;;;;2.25;1.02;;;25.90;45.00;;;;;;2301078;55;20961;-72
2022/08/15 00:59:25;;;;;;;2.12;0.90;;;25.90;45.50;;;;;;2262631;56;21032;-71
2022/08/15 01:01:51;;;;;;;3.40;1.10;;;25.90;45.60;;;;;;2390750;55;20989;-71
2022/08/15 01:04:19;;;;;;;2.12;0.80;;;25.80;45.40;;;;;;2263169;56;21005;-69
2022/08/15 01:06:45;;;;;;;1.77;0.75;;;25.80;45.60;;;;;;2488959;54;21116;-71
2022/08/15 01:09:12;;;;;;;3.30;1.00;;;25.80;45.60;;;;;;2399032;55;21409;-71
2022/08/15 01:11:45;;;;;;;2.55;1.00;;;25.70;45.80;;;;;;2262408;56;21801;-71
2022/08/15 01:14:11;;;;;;;2.22;0.80;;;25.70;46.30;;;;;;2244583;56;20974;-70
2022/08/15 01:16:41;;;;;;;2.50;0.80;;;25.70;46.20;;;;;;2265012;55;21077;-71
2022/08/15 01:19:29;;;;;;;1.60;0.80;;;25.60;46.20;;;;;;2265788;56;21008;-72
2022/08/15 01:25:13;;;;;;;1.98;0.88;;;25.60;47.20;;;;;;2264061;56;20972;-71
2022/08/15 01:29:02;;;;;;;1.90;0.75;;;25.60;46.80;;;;;;2265704;56;21851;-70
2022/08/15 01:31:31;;;;;;;2.03;0.88;;;25.50;46.00;;;;;;2262003;56;21763;-70
2022/08/15 01:33:58;;;;;;;2.20;1.00;;;25.40;46.10;;;;;;2261922;56;21975;-72
2022/08/15 01:36:26;;;;;;;2.53;0.80;;;25.30;46.30;;;;;;2264402;56;21008;-71
2022/08/15 01:39:23;;;;;;;1.37;0.70;;;25.20;46.60;;;;;;2264826;56;20952;-70
2022/08/15 01:41:59;;;;;;;2.00;0.80;;;25.20;47.80;;;;;;2244254;57;20980;-70
2022/08/15 01:44:33;;;;;;;2.03;0.90;;;25.20;47.30;;;;;;2296569;55;21024;-70
2022/08/15 01:47:06;;;;;;;1.67;0.68;;;25.20;47.40;;;;;;2360150;55;21009;-71
2022/08/15 01:49:38;;;;;;;1.25;0.62;;;25.10;47.40;;;;;;2294880;55;20928;-71
2022/08/15 01:52:05;;;;;;;1.50;0.80;;;25.10;47.40;;;;;;2262370;56;21053;-70
2022/08/15 01:54:36;;;;;;;2.05;0.70;;;25.00;47.40;;;;;;2265838;56;21019;-70
2022/08/15 01:57:03;;;;;;;3.58;0.93;;;25.00;47.60;;;;;;2379960;55;21035;-70
2022/08/15 01:59:32;;;;;;;1.62;0.65;;;25.00;47.70;;;;;;2265818;55;20982;-69
2022/08/15 02:02:00;;;;;;;1.87;0.80;;;24.90;47.80;;;;;;2260514;55;21744;-70
2022/08/15 02:04:28;;;;;;;1.50;0.80;;;24.90;47.80;;;;;;2487256;55;20945;-70
2022/08/15 02:07:06;;;;;;;1.35;0.65;;;24.90;47.90;;;;;;2266536;56;21141;-71
2022/08/15 02:09:33;;;;;;;1.92;0.77;;;24.90;48.10;;;;;;2260600;56;21405;-70
2022/08/15 02:12:02;;;;;;;1.90;0.80;;;24.90;48.00;;;;;;2467446;54;20993;-70
2022/08/15 02:14:30;;;;;;;1.90;0.60;;;24.80;48.00;;;;;;2262865;55;20933;-70
2022/08/15 02:16:57;;;;;;;3.17;1.08;;;24.80;48.00;;;;;;2247166;56;20985;-70
2022/08/15 02:19:23;;;;;;;2.20;0.90;;;24.80;48.10;;;;;;2261970;56;21684;-68
2022/08/15 02:21:50;;;;;;;2.20;1.00;;;24.80;48.20;;;;;;2261485;56;20968;-69
2022/08/15 02:24:22;;;;;;;1.67;0.85;;;24.80;48.20;;;;;;2261910;56;20981;-70
2022/08/15 02:26:52;;;;;;;1.60;0.75;;;24.70;48.50;;;;;;2265186;56;20960;-68
2022/08/15 02:29:28;;;;;;;1.42;0.70;;;24.70;48.30;;;;;;2279481;55;21088;-70
2022/08/15 02:31:59;;;;;;;1.67;0.57;;;24.60;48.30;;;;;;2265079;55;21066;-69
2022/08/15 02:34:26;;;;;;;1.70;0.70;;;24.60;48.10;;;;;;2262482;56;21319;-70
2022/08/15 02:36:53;;;;;;;2.35;0.80;;;24.60;48.10;;;;;;2264402;56;21217;-71
2022/08/15 02:39:19;;;;;;;2.10;0.90;;;24.60;48.10;;;;;;2263705;56;21045;-69
2022/08/15 02:41:50;;;;;;;2.05;0.77;;;24.50;48.20;;;;;;2357868;55;21864;-70
2022/08/15 02:44:19;;;;;;;3.80;1.02;;;24.50;48.20;;;;;;2430038;55;21005;-69
2022/08/15 02:46:45;;;;;;;2.55;0.80;;;24.50;48.20;;;;;;2261257;56;21009;-69
2022/08/15 02:49:12;;;;;;;2.12;0.70;;;24.40;48.30;;;;;;2297603;55;21714;-68
2022/08/15 02:51:39;;;;;;;1.80;0.77;;;24.40;48.30;;;;;;2262413;56;20961;-69
2022/08/15 02:54:06;;;;;;;1.48;0.60;;;24.40;48.60;;;;;;2261997;56;21751;-71
2022/08/15 02:56:32;;;;;;;2.15;0.80;;;24.30;48.60;;;;;;2261962;56;20945;-69
2022/08/15 02:59:01;;;;;;;1.70;0.70;;;24.30;48.70;;;;;;2416158;55;20979;-69
2022/08/15 03:01:27;;;;;;;2.05;0.80;;;24.30;48.80;;;;;;2260174;56;21045;-69
2022/08/15 03:03:55;;;;;;;1.70;0.73;;;24.30;48.90;;;;;;2261099;56;21021;-70
2022/08/15 03:06:27;;;;;;;2.67;0.80;;;24.30;49.00;;;;;;2490142;55;20941;-71
2022/08/15 03:08:53;;;;;;;1.50;0.60;;;24.20;48.90;;;;;;2261013;56;20997;-71
2022/08/15 03:11:20;;;;;;;1.45;0.60;;;24.20;48.80;;;;;;2261357;56;20960;-69
2022/08/15 03:13:47;;;;;;;1.58;0.60;;;24.20;48.80;;;;;;2288172;55;20963;-69
2022/08/15 03:16:15;;;;;;;0.90;0.40;;;24.20;48.90;;;;;;2426731;55;21003;-70
2022/08/15 03:18:45;;;;;;;1.80;0.80;;;24.10;48.80;;;;;;2261007;56;20997;-70
2022/08/15 03:21:14;;;;;;;1.23;0.62;;;24.10;48.90;;;;;;2432773;54;20953;-69
2022/08/15 03:23:46;;;;;;;1.83;0.75;;;24.10;49.00;;;;;;2272484;55;20941;-71
2022/08/15 03:26:12;;;;;;;1.50;0.73;;;24.10;49.10;;;;;;2265544;56;20973;-69
2022/08/15 03:28:38;;;;;;;2.40;0.80;;;24.10;49.10;;;;;;2376631;55;20968;-69
2022/08/15 03:31:05;;;;;;;1.48;0.80;;;24.10;49.20;;;;;;2264191;56;20929;-70
2022/08/15 03:33:32;;;;;;;2.28;0.70;;;24.00;49.10;;;;;;2490199;55;20964;-69
2022/08/15 03:36:00;;;;;;;1.75;0.80;;;24.00;49.10;;;;;;2261796;56;20953;-70
2022/08/15 03:38:26;;;;;;;3.00;0.80;;;24.00;49.20;;;;;;2415870;55;20952;-70
2022/08/15 03:40:57;;;;;;;1.65;0.70;;;24.00;49.20;;;;;;2260989;56;21079;-70
2022/08/15 03:43:29;;;;;;;2.22;0.70;;;24.00;49.20;;;;;;2262463;56;21512;-69
2022/08/15 03:46:03;;;;;;;1.60;0.73;;;24.00;49.30;;;;;;2260772;56;20989;-70
2022/08/15 03:48:32;;;;;;;1.98;0.82;;;24.00;49.40;;;;;;2261220;56;21018;-69
2022/08/15 03:51:01;;;;;;;1.75;0.75;;;23.90;49.40;;;;;;2264016;56;21064;-70
2022/08/15 03:53:28;;;;;;;1.52;0.73;;;23.90;49.40;;;;;;2263491;56;20946;-71
2022/08/15 03:55:56;;;;;;;1.40;0.70;;;23.90;49.40;;;;;;2260462;56;21020;-70
2022/08/15 03:58:25;;;;;;;2.80;1.10;;;23.90;49.40;;;;;;2357478;55;20961;-70
2022/08/15 04:00:52;;;;;;;3.80;1.00;;;23.90;49.60;;;;;;2327530;55;20953;-69
2022/08/15 04:03:23;;;;;;;2.12;0.88;;;23.90;49.60;;;;;;2284191;55;21801;-70
2022/08/15 04:05:51;;;;;;;2.05;0.70;;;23.90;49.90;;;;;;2269888;56;22059;-70
2022/08/15 04:08:22;;;;;;;2.40;0.60;;;23.90;49.80;;;;;;2261041;56;21165;-72
2022/08/15 04:10:50;;;;;;;2.72;0.80;;;23.90;49.90;;;;;;2263622;55;21039;-71
2022/08/15 04:13:18;;;;;;;1.60;0.70;;;23.90;49.70;;;;;;2263787;56;21042;-70
2022/08/15 04:15:44;;;;;;;2.20;0.90;;;23.90;49.70;;;;;;2265299;55;21043;-70
2022/08/15 04:18:15;;;;;;;1.50;0.73;;;23.90;49.80;;;;;;2264149;56;20989;-70
2022/08/15 04:20:42;;;;;;;2.40;0.93;;;23.90;50.00;;;;;;2270741;55;20981;-71
2022/08/15 04:23:08;;;;;;;1.50;0.68;;;23.90;49.90;;;;;;2267797;56;20957;-70
2022/08/15 04:25:36;;;;;;;1.92;0.70;;;23.90;49.90;;;;;;2260275;56;20968;-70
2022/08/15 04:28:08;;;;;;;1.80;0.88;;;23.90;49.90;;;;;;2260898;56;21524;-70
2022/08/15 04:30:39;;;;;;;1.67;0.80;;;23.90;50.60;;;;;;2265514;56;20929;-70
2022/08/15 04:33:20;;;;;;;2.20;0.80;;;23.90;50.10;;;;;;2328381;55;20970;-69
2022/08/15 04:35:59;;;;;;;1.73;0.80;;;23.90;50.20;;;;;;2281690;55;20988;-70
2022/08/15 04:38:26;;;;;;;2.60;0.85;;;23.90;50.10;;;;;;2267402;55;20971;-70
2022/08/15 04:40:53;;;;;;;1.62;0.70;;;23.80;49.80;;;;;;2271072;56;21549;-70
2022/08/15 04:43:21;;;;;;;1.98;0.90;;;23.80;50.00;;;;;;2266101;56;21013;-70
2022/08/15 04:45:49;;;;;;;2.75;0.70;;;23.80;50.00;;;;;;2261704;56;21077;-71
2022/08/15 04:48:17;;;;;;;2.25;0.80;;;23.80;50.00;;;;;;2261980;56;21028;-69
2022/08/15 04:50:44;;;;;;;1.67;0.80;;;23.80;49.90;;;;;;2265264;56;20973;-70
2022/08/15 04:53:11;;;;;;;2.45;0.90;;;23.80;49.80;;;;;;2482723;55;21339;-70
2022/08/15 04:55:41;;;;;;;2.17;0.88;;;23.80;49.90;;;;;;2304328;55;21041;-69
2022/08/15 04:58:08;;;;;;;2.25;0.80;;;23.80;49.90;;;;;;2261255;56;21821;-69
2022/08/15 05:00:37;;;;;;;2.17;0.88;;;23.70;49.90;;;;;;2261164;56;20988;-70
2022/08/15 05:03:12;;;;;;;2.00;0.80;;;23.70;50.00;;;;;;2263256;56;20977;-70
2022/08/15 05:05:42;;;;;;;2.55;0.98;;;23.70;50.20;;;;;;2303920;55;20981;-70
2022/08/15 05:08:08;;;;;;;2.12;0.82;;;23.70;50.20;;;;;;2263638;56;20989;-71
2022/08/15 05:10:36;;;;;;;1.67;0.82;;;23.70;50.20;;;;;;2333504;55;21021;-71
2022/08/15 05:13:15;;;;;;;1.92;0.93;;;23.70;50.10;;;;;;2296365;55;21000;-70
2022/08/15 05:15:42;;;;;;;1.92;0.82;;;23.60;50.50;;;;;;2262086;56;21886;-71
2022/08/15 05:18:10;;;;;;;2.03;0.80;;;23.70;50.30;;;;;;2289664;55;21017;-70
2022/08/15 05:20:39;;;;;;;2.22;0.73;;;23.60;50.20;;;;;;2261478;56;21040;-70
2022/08/15 05:23:07;;;;;;;2.20;1.00;;;23.60;50.30;;;;;;2261232;56;21024;-70
2022/08/15 05:25:38;;;;;;;2.10;0.80;;;23.60;50.40;;;;;;2264817;56;21367;-70
2022/08/15 05:28:04;;;;;;;2.22;1.00;;;23.60;50.50;;;;;;2261281;56;20952;-70
2022/08/15 05:30:30;;;;;;;1.92;0.80;;;23.60;50.50;;;;;;2262227;56;20970;-70
2022/08/15 05:33:13;;;;;;;2.45;0.90;;;23.60;50.60;;;;;;2261639;56;21013;-70
2022/08/15 05:35:44;;;;;;;2.25;1.10;;;23.60;50.80;;;;;;2320160;56;20970;-71
2022/08/15 05:38:15;;;;;;;2.73;1.10;;;23.60;50.60;;;;;;2247137;56;21074;-71
2022/08/15 05:43:50;;;;;;;3.28;1.00;;;23.60;50.80;;;;;;2245699;56;21777;-71
2022/08/15 05:46:35;;;;;;;3.60;1.00;;;23.60;51.00;;;;;;2490127;54;21072;-71
2022/08/15 05:49:24;;;;;;;1.80;0.77;;;23.60;50.60;;;;;;2262690;56;21020;-71
2022/08/15 05:52:17;;;;;;;1.90;0.80;;;23.60;50.60;;;;;;2260961;56;20961;-70
2022/08/15 05:56:43;;;;;;;2.28;1.20;;;23.60;51.30;;;;;;2262008;56;21542;-70
2022/08/15 05:59:12;;;;;;;1.83;0.88;;;23.60;51.10;;;;;;2261903;56;21349;-69
2022/08/15 06:02:02;;;;;;;2.55;0.93;;;23.60;50.80;;;;;;2262381;56;20949;-69
2022/08/15 06:05:26;;;;;;;2.28;1.20;;;23.70;51.60;;;;;;2490883;55;20965;-68
2022/08/15 06:07:53;;;;;;;2.47;1.10;;;23.70;51.60;;;;;;2408387;55;20953;-70
2022/08/15 06:10:33;;;;;;;2.22;0.90;;;23.70;51.00;;;;;;2261270;56;20925;-70
2022/08/15 06:13:22;;;;;;;6.03;1.35;;;23.70;51.50;;;;;;2261261;56;21431;-68
2022/08/15 06:16:15;;;;;;;1.98;1.00;;;23.80;51.70;;;;;;2264719;55;20940;-70
2022/08/15 06:18:45;;;;;;;2.10;0.85;;;23.80;51.60;;;;;;2485399;54;20952;-70
2022/08/15 06:21:30;;;;;;;2.47;0.90;;;23.90;51.30;;;;;;2264593;56;20948;-70
2022/08/15 06:24:19;;;;;;;3.35;1.40;;;23.90;51.50;;;;;;2262208;56;20948;-70
2022/08/15 06:30:08;;;;;;;2.15;1.00;;;23.90;51.70;;;;;;2262480;56;21033;-70
2022/08/15 06:35:44;;;;;;;2.17;0.93;;;24.10;51.40;;;;;;2261252;56;21485;-69
2022/08/15 06:38:19;;;;;;;;;;;24.20;51.10;;;;;;2264717;56;20963;-70
2022/08/15 06:41:04;;;;;;;2.87;0.90;;;24.20;51.00;;;;;;2265390;56;20918;-71
2022/08/15 06:43:30;;;;;;;2.47;1.00;;;24.30;50.70;;;;;;2242513;56;20945;-69
2022/08/15 06:45:59;;;;;;;2.22;0.90;;;24.30;50.70;;;;;;2260950;56;21028;-69
2022/08/15 06:48:28;;;;;;;2.50;1.00;;;24.30;50.90;;;;;;2275922;55;20972;-67
2022/08/15 06:50:56;;;;;;;2.40;0.90;;;24.30;51.00;;;;;;2261933;56;20883;-70
2022/08/15 06:53:30;;;;;;;2.10;0.90;;;24.30;51.00;;;;;;2262139;56;20988;-67
2022/08/15 06:56:12;;;;;;;1.87;0.80;;;24.40;51.10;;;;;;2262228;56;20969;-68
2022/08/15 06:59:16;;;;;;;1.73;0.80;;;24.40;51.20;;;;;;2265312;56;20973;-69
2022/08/15 07:01:57;;;;;;;2.12;0.90;;;24.50;51.50;;;;;;2261132;56;21265;-70
2022/08/15 07:04:57;;;;;;;1.60;0.73;;;24.50;51.20;;;;;;2272535;55;20952;-68
2022/08/15 07:07:48;;;;;;;3.05;0.73;;;24.60;51.40;;;;;;2263925;56;20957;-69
2022/08/15 07:10:33;;;;;;;2.67;0.90;;;24.60;51.30;;;;;;2261972;56;21000;-69
2022/08/15 07:13:20;;;;;;;2.37;0.90;;;24.70;51.10;;;;;;2261684;56;20957;-70
2022/08/15 07:16:02;;;;;;;2.00;0.85;;;24.80;51.00;;;;;;2263786;56;20977;-68
2022/08/15 07:18:40;;;;;;;1.77;0.88;;;24.80;50.80;;;;;;2264172;55;20981;-69
2022/08/15 07:21:16;;;;;;;2.60;0.75;;;24.80;50.60;;;;;;2243568;57;20965;-69
2022/08/15 07:24:11;;;;;;;1.98;0.85;;;24.90;50.40;;;;;;2261340;56;20913;-69
2022/08/15 07:27:28;;;;;;;1.80;0.80;;;24.90;50.40;;;;;;2244144;57;20951;-70
2022/08/15 07:30:16;;;;;;;2.10;0.80;;;25.00;50.40;;;;;;2262740;56;20992;-71
2022/08/15 07:32:53;;;;;;;2.00;0.90;;;25.00;50.30;;;;;;2490221;55;20924;-71
2022/08/15 07:35:25;;;;;;;1.80;0.80;;;25.00;50.30;;;;;;2263616;56;20962;-70
2022/08/15 07:37:58;;;;;;;1.67;0.85;;;25.00;50.20;;;;;;2260848;56;20993;-70
2022/08/15 07:40:38;;;;;;;1.85;0.85;;;25.10;50.30;;;;;;2264693;56;20993;-69
2022/08/15 07:43:25;;;;;;;2.67;1.10;;;25.10;50.40;;;;;;2261495;56;21004;-70
2022/08/15 07:46:20;;;;;;;1.37;0.60;;;25.20;50.60;;;;;;2261751;56;20988;-70
2022/08/15 07:48:54;;;;;;;2.00;0.95;;;25.20;50.50;;;;;;2262302;56;21000;-70
2022/08/15 07:51:26;;;;;;;1.85;0.80;;;25.30;50.30;;;;;;2264814;56;20989;-70
2022/08/15 07:54:05;;;;;;;2.22;0.93;;;25.30;50.20;;;;;;2260621;56;21015;-71
2022/08/15 07:56:34;;;;;;;2.37;0.95;;;25.40;50.30;;;;;;2261251;56;21456;-70
2022/08/15 08:00:17;;;;;;;2.37;0.98;;;25.40;50.10;;;;;;2262955;56;20988;-70
2022/08/15 08:06:45;;;;;;;2.40;0.95;;;25.50;50.20;;;;;;2259582;56;21837;-70
2022/08/15 08:09:22;;;;;;;1.75;0.70;;;25.70;49.80;;;;;;2489452;55;20956;-70
2022/08/15 08:11:56;;;;;;;1.92;0.80;;;25.80;50.20;;;;;;2260987;56;20929;-70
2022/08/15 08:14:41;;;;;;;1.87;0.90;;;25.90;49.50;;;;;;2264364;56;21097;-71
2022/08/15 08:17:31;;;;;;;2.50;1.10;;;25.90;49.40;;;;;;2263799;56;20975;-70
2022/08/15 08:20:19;;;;;;;1.95;1.00;;;26.00;49.20;;;;;;2262628;55;21320;-71
2022/08/15 08:23:42;;;;;;;2.15;0.80;;;26.10;49.00;;;;;;2261642;56;20945;-71
2022/08/15 08:28:27;;;;;;;1.80;0.80;;;26.10;48.90;;;;;;2268715;55;20960;-70
2022/08/15 08:31:22;;;;;;;1.90;0.70;;;26.30;49.10;;;;;;2261553;56;21008;-70
2022/08/15 08:34:17;;;;;;;2.12;0.82;;;26.30;48.80;;;;;;2262372;56;20953;-70
2022/08/15 08:37:04;;;;;;;3.37;0.90;;;26.40;48.80;;;;;;2438771;55;20933;-71
2022/08/15 08:42:59;;;;;;;2.60;0.80;;;26.60;48.80;;;;;;2383499;55;20985;-72
2022/08/15 08:45:43;;;;;;;1.92;0.90;;;26.60;48.70;;;;;;2261311;56;21028;-70
2022/08/15 08:50:56;;;;;;;1.90;0.90;;;26.70;48.60;;;;;;2263246;56;20944;-71
2022/08/15 08:54:01;;;;;;;1.87;0.88;;;26.80;48.60;;;;;;2247891;55;21041;-71
2022/08/15 08:56:30;;;;;;;3.28;0.85;;;27.00;48.60;;;;;;2261166;56;20940;-69
2022/08/15 08:59:29;;;;;;;1.87;0.73;;;27.00;48.50;;;;;;2262511;56;20977;-71
2022/08/15 09:02:02;;;;;;;2.90;1.00;;;27.10;48.40;;;;;;2266705;56;20965;-70
2022/08/15 09:04:39;;;;;;;2.30;1.00;;;27.20;48.30;;;;;;2258212;56;20949;-70
2022/08/15 09:07:06;;;;;;;2.15;1.00;;;27.20;48.00;;;;;;2263344;56;21020;-71
2022/08/15 09:09:36;;;;;;;2.00;0.77;;;27.30;47.90;;;;;;2266530;56;21031;-71
2022/08/15 09:15:05;;;;;;;2.50;0.93;;;27.40;48.60;;;;;;2264281;56;20984;-71
2022/08/15 09:17:34;;;;;;;2.70;1.20;;;27.50;48.00;;;;;;2263646;56;21006;-71
2022/08/15 09:20:14;;;;;;;2.55;1.20;;;27.60;48.00;;;;;;2260922;56;21445;-70
2022/08/15 09:22:40;;;;;;;4.72;1.23;;;27.60;47.70;;;;;;2262204;56;21013;-71
2022/08/15 09:25:07;;;;;;;2.15;0.93;;;27.70;47.60;;;;;;2490038;55;20984;-70
2022/08/15 09:29:29;;;;;;;2.12;1.00;;;27.70;47.60;;;;;;2261619;56;21036;-70
2022/08/15 09:35:12;;;;;;;3.90;1.02;;;27.80;47.40;;;;;;2263022;56;21052;-71
2022/08/15 09:38:00;;;;;;;2.53;1.05;;;28.00;47.10;;;;;;2264903;56;21093;-71
2022/08/15 09:43:51;;;;;;;2.17;0.95;;;28.10;46.80;;;;;;2411105;55;21365;-70
2022/08/15 09:48:11;;;;;;;2.17;0.95;;;28.10;46.90;;;;;;2261514;56;21068;-70
2022/08/15 09:54:48;;;;;;;2.95;1.17;;;28.30;46.20;;;;;;2262924;56;21284;-71
2022/08/15 09:57:44;;;;;;;3.40;1.27;;;28.40;46.10;;;;;;2261606;56;21020;-69
2022/08/15 10:01:52;;;;;;;2.30;1.10;;;28.50;45.60;;;;;;2261137;56;21032;-70
2022/08/15 10:04:20;;;;;;;1.50;0.75;;;28.60;45.50;;;;;;2264199;56;21064;-70
2022/08/15 10:08:08;;;;;;;2.75;1.20;;;28.60;45.60;;;;;;2262817;56;21020;-71
2022/08/15 10:11:07;;;;;;;2.25;1.00;;;28.60;45.30;;;;;;2262078;56;20957;-70
2022/08/15 10:13:45;;;;;;;2.30;1.10;;;28.70;45.10;;;;;;2311952;55;21026;-69
2022/08/15 10:16:43;;;;;;;1.80;0.95;;;28.70;44.90;;;;;;2263752;56;20992;-71
2022/08/15 10:19:38;;;;;;;3.17;1.12;;;28.80;44.90;;;;;;2264975;56;20992;-71
2022/08/15 10:25:39;;;;;;;3.15;1.10;;;28.80;44.60;;;;;;2355203;55;20973;-70
2022/08/15 10:28:40;;;;;;;1.98;0.93;;;28.90;44.80;;;;;;2261383;56;20933;-69
2022/08/15 10:31:29;;;;;;;2.92;1.00;;;29.00;44.80;;;;;;2261253;56;20944;-70
2022/08/15 10:33:58;;;;;;;3.28;1.25;;;29.10;44.60;;;;;;2261737;56;21465;-71
2022/08/15 10:36:30;;;;;;;3.12;1.30;;;29.10;44.70;;;;;;2264524;56;21393;-70
2022/08/15 10:39:29;;;;;;;2.23;0.97;;;29.10;44.40;;;;;;2289811;55;20969;-71
2022/08/15 10:43:44;;;;;;;2.00;0.88;;;29.20;44.30;;;;;;2354488;55;21047;-70
2022/08/15 10:49:27;;;;;;;2.62;1.17;;;29.30;44.20;;;;;;2432463;54;20965;-70
2022/08/15 10:52:24;;;;;;;2.10;1.00;;;29.50;44.00;;;;;;2489155;55;21743;-71
2022/08/15 10:55:37;;;;;;;2.08;1.12;;;29.50;43.70;;;;;;2393164;55;21027;-70
2022/08/15 10:58:19;;;;;;;2.62;1.15;;;29.60;43.60;;;;;;2261507;56;20968;-70
2022/08/15 11:01:11;;;;;;;3.12;1.60;;;29.60;42.90;;;;;;2264474;56;20996;-70
2022/08/15 11:04:02;;;;;;;2.30;1.25;;;29.70;42.70;;;;;;2260801;59;21128;-69
2022/08/15 11:06:29;;;;;;;2.83;1.50;;;29.70;42.90;;;;;;2261179;59;21135;-70
2022/08/15 11:09:06;;;;;;;3.00;1.45;;;29.80;43.10;;;;;;2256137;55;20989;-70
2022/08/15 11:12:00;;;;;;;3.78;1.73;;;29.80;42.80;;;;;;2264820;56;20983;-69
2022/08/15 11:14:31;;;;;;;3.30;1.67;;;29.90;42.80;;;;;;2264193;56;20965;-69
2022/08/15 11:16:59;;;;;;;2.92;1.35;;;30.00;42.90;;;;;;2264722;55;20974;-69
2022/08/15 11:19:30;;;;;;;2.00;1.02;;;30.00;42.90;;;;;;2264707;56;21485;-70
2022/08/15 11:21:59;;;;;;;2.10;1.25;;;30.10;42.70;;;;;;2262521;56;20980;-71
2022/08/15 11:24:34;;;;;;;3.97;1.50;;;30.20;42.70;;;;;;2264639;55;20953;-69
2022/08/15 11:27:24;;;;;;;2.83;1.50;;;30.30;42.20;;;;;;2268109;55;21005;-71
2022/08/15 11:29:55;;;;;;;3.22;1.48;;;30.30;41.50;;;;;;2262129;56;20988;-70
2022/08/15 11:32:39;;;;;;;3.62;1.67;;;30.40;41.90;;;;;;2264100;56;20976;-69
2022/08/15 11:35:20;;;;;;;4.05;1.52;;;30.40;41.40;;;;;;2262489;56;20968;-70
2022/08/15 11:37:46;;;;;;;2.50;1.25;;;30.50;41.20;;;;;;2279226;54;20961;-69
2022/08/15 11:40:37;;;;;;;2.40;1.20;;;30.50;41.60;;;;;;2262148;56;21009;-70
2022/08/15 11:43:03;;;;;;;3.47;1.70;;;30.60;41.20;;;;;;2263245;56;21008;-70
2022/08/15 11:45:37;;;;;;;3.08;1.30;;;30.70;41.50;;;;;;2261934;56;20940;-69
2022/08/15 11:48:10;;;;;;;2.97;1.50;;;30.70;41.20;;;;;;2262770;56;21034;-70
2022/08/15 11:50:41;;;;;;;3.67;1.40;;;30.80;40.90;;;;;;2274193;55;21657;-69
2022/08/15 11:53:09;;;;;;;3.40;1.58;;;30.80;41.00;;;;;;2260931;55;21036;-69
2022/08/15 11:55:44;;;;;;;3.22;1.55;;;30.80;41.00;;;;;;2267598;55;21068;-70
2022/08/15 11:58:31;;;;;;;3.97;1.50;;;30.90;40.50;;;;;;2262779;56;21000;-69
2022/08/15 12:00:58;;;;;;;2.42;1.30;;;30.90;40.60;;;;;;2262611;55;21503;-70
2022/08/15 12:03:35;;;;;;;2.15;1.23;;;31.00;40.70;;;;;;2242239;57;20976;-70
2022/08/15 12:07:54;;;;;;;3.28;1.20;;;31.00;40.40;;;;;;2302492;54;21052;-70
2022/08/15 12:10:35;;;;;;;4.12;1.35;;;31.20;40.40;;;;;;2262140;56;21028;-70
2022/08/15 12:13:02;;;;;;;2.92;1.77;;;31.20;39.80;;;;;;2263838;56;21028;-69
2022/08/15 12:15:46;;;;;;;3.60;1.50;;;31.20;39.70;;;;;;2264146;55;21803;-69
2022/08/15 12:18:46;;;;;;;2.90;1.37;;;31.30;39.30;;;;;;2263308;56;21469;-71
2022/08/15 12:21:16;;;;;;;2.72;1.30;;;31.30;39.30;;;;;;2262076;56;20933;-69
2022/08/15 12:24:05;;;;;;;3.10;1.62;;;31.30;39.40;;;;;;2262221;56;20984;-71
2022/08/15 12:26:31;;;;;;;2.90;1.50;;;31.30;39.00;;;;;;2262779;56;20937;-70
2022/08/15 12:29:00;;;;;;;4.12;1.40;;;31.30;39.10;;;;;;2261294;56;21075;-71
2022/08/15 12:31:34;;;;;;;3.55;1.50;;;31.40;38.90;;;;;;2282417;55;21029;-70
2022/08/15 12:34:05;;;;;;;4.07;1.58;;;31.40;38.40;;;;;;2266833;56;20959;-70
2022/08/15 12:36:34;;;;;;;3.83;1.70;;;31.40;38.70;;;;;;2261802;56;21053;-71
2022/08/15 12:39:00;;;;;;;5.82;1.55;;;31.30;38.70;;;;;;2261121;56;25106;-72
2022/08/15 12:41:30;;;;;;;3.28;1.60;;;31.30;38.60;;;;;;2368153;55;21016;-70
2022/08/15 12:43:57;;;;;;;3.50;1.52;;;31.10;38.30;;;;;;2489578;55;20972;-70
2022/08/15 12:46:23;;;;;;;2.47;0.98;;;30.90;38.30;;;;;;2266333;56;20968;-70
2022/08/15 12:48:51;;;;;;;3.03;1.10;;;30.80;38.50;;;;;;2265177;56;21701;-70
2022/08/15 12:51:18;;;;;;;2.95;1.20;;;30.50;38.60;;;;;;2431658;55;21427;-70
2022/08/15 12:53:46;;;;;;;3.00;1.10;;;30.40;39.10;;;;;;2264804;56;21148;-71
2022/08/15 12:56:16;;;;;;;2.80;1.00;;;30.20;39.30;;;;;;2441087;55;21031;-72
2022/08/15 12:58:42;;;;;;;4.00;1.15;;;30.00;39.70;;;;;;2261239;56;20952;-72
2022/08/15 13:01:09;;;;;;;3.22;1.25;;;29.80;40.30;;;;;;2447453;55;20960;-68
2022/08/15 13:03:40;;;;;;;2.67;1.00;;;29.60;40.40;;;;;;2279659;55;21002;-71
2022/08/15 13:06:26;;;;;;;2.77;1.10;;;29.30;40.50;;;;;;2267000;56;21932;-73
2022/08/15 13:08:54;;;;;;;2.35;0.75;;;28.80;39.80;;;;;;2262050;59;21096;-70
2022/08/15 13:11:25;;;;;;;1.85;0.52;;;28.40;39.40;;;;;;2259736;59;21100;-70
2022/08/15 13:13:51;;;;;;;2.53;0.77;;;27.80;40.60;;;;;;2253722;56;21052;-70
2022/08/15 13:16:17;;;;;;;1.67;0.60;;;27.40;41.00;;;;;;2258870;56;20978;-70
2022/08/15 13:18:44;;;;;;;2.37;0.70;;;27.00;41.90;;;;;;2262768;56;20944;-72
2022/08/15 13:23:59;;;;;;;1.40;0.50;;;26.20;43.40;;;;;;2264395;56;21056;-70
2022/08/15 13:26:26;;;;;;;2.45;1.02;;;25.90;44.00;;;;;;2261594;56;21489;-73
2022/08/15 13:28:54;;;;;;;2.42;0.90;;;25.50;44.60;;;;;;2262985;56;20936;-70
2022/08/15 13:31:20;;;;;;;3.08;1.25;;;25.30;45.30;;;;;;2262979;56;20992;-70
2022/08/15 13:33:48;;;;;;;2.10;1.00;;;25.00;45.80;;;;;;2393677;55;21021;-69
2022/08/15 13:36:19;;;;;;;2.40;1.00;;;24.80;46.40;;;;;;2486920;55;21391;-70
2022/08/15 13:38:47;;;;;;;2.80;1.05;;;24.60;46.80;;;;;;2264346;56;22065;-70
2022/08/15 13:41:18;;;;;;;2.45;1.10;;;24.30;47.10;;;;;;2268194;56;21293;-70
2022/08/15 13:43:47;;;;;;;2.80;1.12;;;24.10;47.70;;;;;;2262320;56;21044;-71
2022/08/15 13:46:16;;;;;;;3.28;1.33;;;24.00;48.20;;;;;;2264849;56;21017;-69
2022/08/15 13:48:45;;;;;;;3.62;1.33;;;23.80;48.90;;;;;;2263337;56;20969;-70
2022/08/15 13:51:29;;;;;;;2.53;1.12;;;23.70;49.10;;;;;;2261054;56;21006;-72
2022/08/15 13:54:00;;;;;;;2.53;1.00;;;23.50;49.80;;;;;;2263181;56;21000;-70
2022/08/15 13:56:33;;;;;;;1.73;0.75;;;23.40;50.00;;;;;;2261635;56;20960;-70
2022/08/15 13:59:03;;;;;;;1.42;0.68;;;23.30;50.10;;;;;;2267384;56;20965;-69
2022/08/15 14:01:32;;;;;;;1.95;0.60;;;23.20;50.70;;;;;;2260942;56;20929;-70
2022/08/15 14:04:03;;;;;;;3.10;0.70;;;23.10;50.70;;;;;;2261713;56;20968;-69
2022/08/15 14:06:29;;;;;;;3.97;0.80;;;23.00;51.00;;;;;;2261473;56;20992;-69
2022/08/15 14:08:57;;;;;;;3.80;0.80;;;23.00;51.20;;;;;;2267066;56;20941;-70
2022/08/15 14:11:25;;;;;;;3.90;0.77;;;22.90;51.50;;;;;;2261069;56;21005;-71
2022/08/15 14:13:51;;;;;;;2.35;0.73;;;22.90;51.70;;;;;;2262320;56;20960;-70
2022/08/15 14:16:19;;;;;;;2.45;0.60;;;22.80;52.50;;;;;;2259212;56;21715;-71
2022/08/15 14:18:45;;;;;;;1.70;0.70;;;22.80;52.20;;;;;;2337752;54;21586;-69
2022/08/15 14:21:12;;;;;;;1.80;0.77;;;22.70;52.40;;;;;;2261806;56;20944;-67
2022/08/15 14:23:38;;;;;;;1.23;0.50;;;22.70;52.60;;;;;;2464535;55;21114;-70
2022/08/15 14:26:05;;;;;;;3.08;0.85;;;22.60;52.80;;;;;;2260754;56;20960;-68
2022/08/15 14:28:32;;;;;;;3.03;0.80;;;22.60;53.10;;;;;;2264634;56;20929;-68